createdAt,value
2019-02-02T00:01:15.736Z,2.80
2019-02-02T00:03:21.803Z,2.80
2019-02-02T00:06:17.631Z,2.90
2019-02-02T00:08:05.689Z,2.90
2019-02-02T00:10:14.239Z,2.90
2019-02-02T00:12:32.231Z,3.00
2019-02-02T00:14:45.552Z,3.00
2019-02-02T00:16:50.087Z,3.00
2019-02-02T00:18:55.109Z,3.00
2019-02-02T00:20:59.438Z,3.00
2019-02-02T00:23:23.451Z,3.00
2019-02-02T00:25:40.035Z,3.10
2019-02-02T00:27:46.218Z,3.10
2019-02-02T00:29:52.971Z,3.10
2019-02-02T00:31:58.424Z,3.10
2019-02-02T00:38:47.947Z,3.10
2019-02-02T00:40:39.509Z,3.10
2019-02-02T00:42:45.130Z,3.20
2019-02-02T00:45:09.481Z,3.10
2019-02-02T00:47:15.039Z,3.20
2019-02-02T00:49:31.372Z,3.20
2019-02-02T00:51:47.442Z,3.30
2019-02-02T00:53:51.790Z,3.30
2019-02-02T00:55:56.118Z,3.30
2019-02-02T00:58:00.835Z,3.30
2019-02-02T01:00:06.602Z,3.40
2019-02-02T01:04:36.378Z,3.40
2019-02-02T01:06:40.801Z,3.40
2019-02-02T01:08:45.517Z,3.50
2019-02-02T01:10:49.842Z,3.40
2019-02-02T01:12:54.352Z,3.50
2019-02-02T01:15:18.228Z,3.50
2019-02-02T01:17:41.612Z,3.50
2019-02-02T01:19:45.929Z,3.50
2019-02-02T01:21:50.231Z,3.60
2019-02-02T01:23:54.580Z,3.60
2019-02-02T01:25:59.345Z,3.60
2019-02-02T01:28:22.958Z,3.60
2019-02-02T01:30:27.579Z,3.60
2019-02-02T01:32:32.223Z,3.60
2019-02-02T01:34:36.547Z,3.60
2019-02-02T01:36:41.161Z,3.60
2019-02-02T01:38:45.459Z,3.60
2019-02-02T01:41:10.862Z,3.60
2019-02-02T01:43:15.207Z,3.70
2019-02-02T01:45:39.780Z,3.70
2019-02-02T01:47:44.111Z,3.80
2019-02-02T01:54:45.938Z,4.10
2019-02-02T01:56:50.680Z,3.90
2019-02-02T01:58:55.067Z,3.90
2019-02-02T02:00:59.425Z,3.90
2019-02-02T02:03:22.821Z,3.80
2019-02-02T02:05:27.558Z,3.70
2019-02-02T02:07:31.888Z,3.70
2019-02-02T02:09:55.268Z,3.60
2019-02-02T02:11:59.583Z,3.50
2019-02-02T02:14:04.099Z,3.40
2019-02-02T02:16:08.725Z,3.30
2019-02-02T02:18:13.110Z,3.30
2019-02-02T02:20:17.901Z,3.30
2019-02-02T02:22:22.256Z,3.20
2019-02-02T02:24:26.610Z,3.10
2019-02-02T02:26:51.299Z,3.00
2019-02-02T02:29:07.997Z,2.90
2019-02-02T02:31:20.880Z,2.80
2019-02-02T02:33:25.215Z,2.70
2019-02-02T02:35:29.573Z,2.70
2019-02-02T02:37:34.149Z,2.70
2019-02-02T02:39:38.771Z,2.70
2019-02-02T02:41:43.136Z,2.70
2019-02-02T02:43:47.814Z,2.70
2019-02-02T02:45:52.500Z,2.60
2019-02-02T02:48:15.896Z,2.50
2019-02-02T02:50:20.779Z,2.50
2019-02-02T02:52:25.109Z,2.50
2019-02-02T02:54:29.445Z,2.50
2019-02-02T02:56:52.846Z,2.50
2019-02-02T02:58:57.156Z,2.50
2019-02-02T03:01:01.550Z,2.50
2019-02-02T03:03:25.000Z,2.60
2019-02-02T03:08:13.782Z,2.60
2019-02-02T03:10:19.462Z,2.60
2019-02-02T03:12:23.835Z,2.60
2019-02-02T03:14:47.308Z,2.60
2019-02-02T03:16:51.659Z,2.60
2019-02-02T03:18:56.095Z,2.70
2019-02-02T03:21:00.518Z,2.70
2019-02-02T03:23:04.885Z,2.70
2019-02-02T03:25:12.125Z,2.70
2019-02-02T03:27:16.609Z,2.70
2019-02-02T03:29:20.927Z,2.70
2019-02-02T03:31:25.248Z,2.60
2019-02-02T03:33:48.707Z,2.70
2019-02-02T03:36:13.563Z,2.70
2019-02-02T03:38:17.996Z,2.70
2019-02-02T03:40:41.449Z,2.70
2019-02-02T03:42:45.916Z,2.80
2019-02-02T03:44:50.611Z,2.80
2019-02-02T03:46:55.309Z,2.80
2019-02-02T03:48:59.707Z,2.90
2019-02-02T03:51:03.983Z,2.90
2019-02-02T03:53:08.345Z,2.80
2019-02-02T03:55:13.516Z,2.80
2019-02-02T03:57:17.843Z,2.80
2019-02-02T03:59:25.167Z,2.80
2019-02-02T04:01:30.304Z,2.90
2019-02-02T04:03:35.550Z,2.80
2019-02-02T04:05:39.971Z,2.70
2019-02-02T04:08:03.379Z,2.70
2019-02-02T04:10:09.058Z,2.70
2019-02-02T04:12:13.454Z,2.70
2019-02-02T04:14:17.796Z,2.70
2019-02-02T04:16:24.499Z,2.80
2019-02-02T04:18:28.934Z,2.70
2019-02-02T04:20:33.425Z,2.70
2019-02-02T04:22:37.790Z,2.70
2019-02-02T04:24:42.107Z,2.70
2019-02-02T04:26:46.417Z,2.70
2019-02-02T04:28:50.809Z,2.70
2019-02-02T04:30:55.247Z,2.70
2019-02-02T04:32:59.890Z,2.70
2019-02-02T04:35:04.555Z,2.70
2019-02-02T04:37:08.934Z,2.70
2019-02-02T04:39:13.202Z,2.70
2019-02-02T04:41:17.773Z,2.70
2019-02-02T04:43:41.150Z,2.60
2019-02-02T04:45:45.485Z,2.70
2019-02-02T04:48:08.836Z,2.70
2019-02-02T04:50:25.073Z,2.70
2019-02-02T04:52:29.820Z,2.70
2019-02-02T04:54:53.296Z,2.70
2019-02-02T04:56:57.734Z,2.70
2019-02-02T04:59:02.070Z,2.70
2019-02-02T05:01:06.671Z,2.70
2019-02-02T05:03:11.449Z,2.70
2019-02-02T05:05:16.057Z,2.70
2019-02-02T05:07:20.471Z,2.60
2019-02-02T05:09:43.937Z,2.50
2019-02-02T05:11:48.255Z,2.50
2019-02-02T05:13:52.616Z,2.50
2019-02-02T05:15:57.022Z,2.50
2019-02-02T05:18:20.429Z,2.50
2019-02-02T05:20:27.313Z,2.50
2019-02-02T05:22:31.663Z,2.50
2019-02-02T05:24:36.072Z,2.50
2019-02-02T05:26:40.443Z,2.40
2019-02-02T05:28:44.763Z,2.50
2019-02-02T05:30:50.199Z,2.40
2019-02-02T05:33:13.642Z,2.40
2019-02-02T05:35:30.077Z,2.40
2019-02-02T05:37:45.830Z,2.40
2019-02-02T05:39:50.163Z,2.40
2019-02-02T05:41:54.616Z,2.40
2019-02-02T05:43:59.177Z,2.40
2019-02-02T05:46:08.621Z,2.30
2019-02-02T05:48:13.004Z,2.40
2019-02-02T05:50:19.272Z,2.40
2019-02-02T05:52:23.703Z,2.40
2019-02-02T05:54:47.084Z,2.30
2019-02-02T05:56:51.391Z,2.30
2019-02-02T06:03:31.064Z,2.40
2019-02-02T06:05:35.505Z,2.40
2019-02-02T06:07:39.830Z,2.40
2019-02-02T06:09:44.288Z,2.50
2019-02-02T06:11:48.697Z,2.50
2019-02-02T06:13:53.030Z,2.50
2019-02-02T06:16:16.458Z,2.50
2019-02-02T06:18:20.792Z,2.60
2019-02-02T06:20:25.179Z,2.60
2019-02-02T06:22:48.565Z,2.60
2019-02-02T06:25:04.799Z,2.60
2019-02-02T06:27:20.349Z,2.60
2019-02-02T06:29:24.781Z,2.60
2019-02-02T06:31:29.108Z,2.70
2019-02-02T06:33:35.897Z,2.70
2019-02-02T06:35:40.286Z,2.70
2019-02-02T06:37:44.656Z,2.80
2019-02-02T06:39:49.031Z,2.80
2019-02-02T06:41:53.422Z,2.90
2019-02-02T06:43:57.802Z,2.80
2019-02-02T06:46:21.210Z,2.90
2019-02-02T06:48:44.593Z,2.90
2019-02-02T06:51:08.640Z,3.00
2019-02-02T06:53:13.132Z,2.90
2019-02-02T06:55:17.451Z,3.00
2019-02-02T06:57:40.870Z,3.00
2019-02-02T06:59:45.518Z,3.00
2019-02-02T07:02:01.855Z,3.00
2019-02-02T07:04:06.296Z,2.90
2019-02-02T07:06:10.816Z,3.00
2019-02-02T07:08:15.231Z,2.90
2019-02-02T07:10:21.679Z,3.00
2019-02-02T07:12:26.091Z,2.90
2019-02-02T07:14:30.714Z,2.90
2019-02-02T07:16:35.325Z,2.90
2019-02-02T07:18:39.634Z,2.90
2019-02-02T07:20:44.023Z,2.90
2019-02-02T07:23:07.397Z,3.00
2019-02-02T07:25:30.828Z,3.00
2019-02-02T07:27:35.162Z,2.90
2019-02-02T07:29:39.802Z,2.90
2019-02-02T07:31:44.120Z,2.90
2019-02-02T07:33:48.524Z,2.90
2019-02-02T07:35:54.166Z,2.90
2019-02-02T07:40:04.843Z,2.90
2019-02-02T07:42:09.267Z,2.90
2019-02-02T07:44:13.719Z,2.90
2019-02-02T07:46:18.303Z,3.00
2019-02-02T07:48:22.690Z,3.00
2019-02-02T07:50:27.792Z,3.00
2019-02-02T07:52:32.644Z,3.00
2019-02-02T07:54:37.162Z,3.00
2019-02-02T07:56:41.517Z,3.00
2019-02-02T07:58:46.274Z,3.00
2019-02-02T08:01:09.782Z,2.90
2019-02-02T08:03:33.362Z,2.90
2019-02-02T08:05:37.824Z,2.90
2019-02-02T08:08:01.253Z,3.00
2019-02-02T08:12:19.524Z,3.00
2019-02-02T08:14:24.097Z,3.00
2019-02-02T08:16:31.431Z,3.00
2019-02-02T08:18:55.409Z,3.10
2019-02-02T08:20:59.862Z,3.10
2019-02-02T08:23:15.743Z,3.10
2019-02-02T08:25:32.277Z,3.00
2019-02-02T08:27:36.645Z,3.00
2019-02-02T08:29:40.983Z,3.00
2019-02-02T08:31:45.384Z,3.00
2019-02-02T08:33:50.474Z,3.00
2019-02-02T08:35:54.942Z,3.10
2019-02-02T08:37:59.434Z,3.10
2019-02-02T08:40:04.092Z,3.10
2019-02-02T08:42:08.464Z,3.10
2019-02-02T08:44:13.275Z,3.00
2019-02-02T08:46:17.664Z,2.90
2019-02-02T08:48:22.118Z,2.90
2019-02-02T08:50:46.404Z,2.90
2019-02-02T08:52:51.242Z,3.00
2019-02-02T08:54:55.593Z,2.90
2019-02-02T08:57:00.037Z,2.80
2019-02-02T08:59:23.495Z,2.70
2019-02-02T09:01:27.798Z,2.70
2019-02-02T09:03:32.718Z,2.80
2019-02-02T09:05:37.141Z,2.80
2019-02-02T09:07:41.780Z,2.70
2019-02-02T09:09:47.040Z,2.80
2019-02-02T09:12:10.413Z,2.70
2019-02-02T09:17:04.023Z,2.70
2019-02-02T09:19:27.460Z,2.70
2019-02-02T09:21:43.180Z,2.50
2019-02-02T09:23:59.681Z,2.60
2019-02-02T09:26:16.198Z,2.60
2019-02-02T09:28:32.628Z,2.60
2019-02-02T09:30:49.306Z,2.60
2019-02-02T09:33:05.849Z,2.60
2019-02-02T09:35:22.310Z,2.70
2019-02-02T09:37:39.769Z,2.70
2019-02-02T09:39:56.292Z,2.70
2019-02-02T09:42:12.585Z,2.70
2019-02-02T09:44:28.882Z,2.80
2019-02-02T09:46:45.388Z,2.70
2019-02-02T09:49:02.016Z,2.70
2019-02-02T09:51:18.147Z,2.70
2019-02-02T09:53:34.354Z,2.70
2019-02-02T09:55:50.123Z,2.50
2019-02-02T09:58:08.596Z,2.70
2019-02-02T10:00:29.800Z,2.80
2019-02-02T10:02:46.166Z,2.80
2019-02-02T10:05:02.555Z,2.70
2019-02-02T10:07:18.979Z,2.60
2019-02-02T10:09:34.631Z,2.60
2019-02-02T10:11:51.231Z,2.70
2019-02-02T10:14:06.943Z,2.70
2019-02-02T10:16:23.521Z,2.80
2019-02-02T10:18:39.228Z,2.70
2019-02-02T10:21:03.770Z,2.70
2019-02-02T10:23:33.909Z,2.60
2019-02-02T10:25:39.428Z,2.70
2019-02-02T10:28:15.877Z,2.70
2019-02-02T10:30:32.262Z,2.70
2019-02-02T10:32:53.201Z,2.70
2019-02-02T10:35:09.970Z,2.70
2019-02-02T10:37:26.221Z,2.70
2019-02-02T10:39:42.205Z,2.80
2019-02-02T10:41:58.513Z,2.70
2019-02-02T10:44:14.814Z,2.70
2019-02-02T10:46:31.199Z,2.60
2019-02-02T10:48:47.683Z,2.60
2019-02-02T10:51:04.273Z,2.70
2019-02-02T10:53:08.826Z,2.80
2019-02-02T10:55:34.995Z,2.70
2019-02-02T10:57:51.116Z,2.80
2019-02-02T11:00:07.612Z,2.80
2019-02-02T11:02:23.322Z,2.70
2019-02-02T11:04:39.232Z,2.70
2019-02-02T11:06:55.681Z,2.60
2019-02-02T11:09:11.940Z,2.60
2019-02-02T11:11:28.482Z,2.60
2019-02-02T11:13:45.202Z,2.60
2019-02-02T11:16:00.934Z,2.70
2019-02-02T11:18:16.499Z,2.70
2019-02-02T11:20:32.645Z,2.80
2019-02-02T11:22:48.911Z,2.70
2019-02-02T11:25:05.314Z,2.70
2019-02-02T11:27:21.623Z,2.60
2019-02-02T11:29:37.398Z,2.70
2019-02-02T11:32:02.613Z,2.70
2019-02-02T11:34:11.703Z,2.70
2019-02-02T11:36:28.205Z,2.70
2019-02-02T11:38:44.009Z,2.70
2019-02-02T11:40:59.789Z,2.70
2019-02-02T11:43:16.371Z,2.70
2019-02-02T11:45:32.694Z,2.60
2019-02-02T11:47:49.324Z,2.60
2019-02-02T11:50:05.788Z,2.70
2019-02-02T11:52:23.355Z,2.60
2019-02-02T11:54:40.061Z,2.60
2019-02-02T11:56:55.729Z,2.60
2019-02-02T11:59:02.788Z,2.60
2019-02-02T12:01:07.222Z,2.60
2019-02-02T12:03:30.701Z,2.60
2019-02-02T12:05:46.233Z,2.60
2019-02-02T12:08:03.649Z,2.60
2019-02-02T12:10:21.787Z,2.60
2019-02-02T12:12:37.194Z,2.50
2019-02-02T12:14:53.621Z,2.40
2019-02-02T12:17:10.197Z,2.40
2019-02-02T12:19:25.990Z,2.40
2019-02-02T12:21:42.563Z,2.40
2019-02-02T12:23:58.286Z,2.40
2019-02-02T12:26:14.131Z,2.40
2019-02-02T12:28:30.261Z,2.40
2019-02-02T12:30:35.796Z,2.40
2019-02-02T12:32:40.336Z,2.40
2019-02-02T12:34:45.074Z,2.40
2019-02-02T12:37:08.664Z,2.30
2019-02-02T12:39:24.627Z,2.30
2019-02-02T12:41:40.446Z,2.40
2019-02-02T12:43:56.878Z,2.40
2019-02-02T12:46:13.452Z,2.40
2019-02-02T12:48:32.237Z,2.30
2019-02-02T12:50:47.335Z,2.30
2019-02-02T12:53:03.131Z,2.30
2019-02-02T12:55:07.916Z,2.30
2019-02-02T12:57:31.318Z,2.20
2019-02-02T12:59:37.974Z,2.30
2019-02-02T13:02:01.894Z,2.30
2019-02-02T13:04:17.413Z,2.30
2019-02-02T13:06:33.810Z,2.20
2019-02-02T13:08:49.817Z,2.20
2019-02-02T13:11:06.362Z,2.20
2019-02-02T13:13:22.288Z,2.20
2019-02-02T13:15:39.464Z,2.20
2019-02-02T13:17:45.723Z,2.30
2019-02-02T13:20:09.915Z,2.20
2019-02-02T13:22:26.226Z,2.20
2019-02-02T13:24:35.658Z,2.20
2019-02-02T13:26:40.191Z,2.20
2019-02-02T13:29:04.035Z,2.10
2019-02-02T13:31:08.750Z,2.10
2019-02-02T13:33:13.151Z,2.10
2019-02-02T13:35:38.121Z,2.10
2019-02-02T13:37:54.610Z,2.10
2019-02-02T13:39:59.074Z,2.10
2019-02-02T13:42:22.501Z,2.10
2019-02-02T13:47:21.450Z,2.10
2019-02-02T13:49:38.056Z,2.10
2019-02-02T13:51:54.316Z,2.10
2019-02-02T13:54:10.411Z,2.10
2019-02-02T13:56:26.947Z,2.10
2019-02-02T13:58:42.755Z,2.10
2019-02-02T14:00:58.575Z,2.10
2019-02-02T14:03:15.002Z,2.10
2019-02-02T14:05:31.509Z,2.20
2019-02-02T14:07:47.036Z,2.20
2019-02-02T14:10:03.701Z,2.20
2019-02-02T14:12:19.304Z,2.10
2019-02-02T14:14:35.795Z,2.00
2019-02-02T14:16:52.459Z,2.10
2019-02-02T14:19:09.073Z,2.00
2019-02-02T14:21:25.422Z,2.00
2019-02-02T14:23:41.438Z,2.20
2019-02-02T14:26:00.267Z,2.00
2019-02-02T14:28:27.573Z,2.00
2019-02-02T14:30:35.068Z,2.00
2019-02-02T14:32:54.287Z,2.00
2019-02-02T14:35:09.486Z,2.00
2019-02-02T14:37:26.077Z,2.00
2019-02-02T14:39:42.449Z,1.90
2019-02-02T14:41:58.830Z,1.90
2019-02-02T14:44:15.146Z,1.90
2019-02-02T14:46:32.054Z,1.90
2019-02-02T14:48:47.978Z,1.90
2019-02-02T14:51:04.404Z,1.90
2019-02-02T14:53:09.089Z,1.90
2019-02-02T14:55:32.850Z,1.90
2019-02-02T14:57:50.395Z,1.90
2019-02-02T15:00:06.627Z,1.90
2019-02-02T15:02:23.046Z,1.90
2019-02-02T15:04:38.856Z,1.90
2019-02-02T15:06:43.231Z,1.90
2019-02-02T15:09:07.282Z,2.00
2019-02-02T15:11:23.802Z,1.90
2019-02-02T15:13:40.833Z,1.90
2019-02-02T15:15:57.220Z,2.00
2019-02-02T15:18:13.517Z,1.90
2019-02-02T15:20:29.815Z,2.00
2019-02-02T15:22:34.557Z,2.00
2019-02-02T15:24:58.088Z,2.00
2019-02-02T15:27:21.580Z,2.10
2019-02-02T15:29:45.646Z,2.00
2019-02-02T15:32:09.399Z,1.90
2019-02-02T15:34:25.031Z,1.90
2019-02-02T15:36:41.396Z,1.90
2019-02-02T15:38:45.901Z,1.90
2019-02-02T15:41:09.333Z,1.90
2019-02-02T15:43:25.483Z,1.90
2019-02-02T15:45:41.289Z,1.80
2019-02-02T15:47:57.469Z,1.70
2019-02-02T15:50:13.817Z,1.70
2019-02-02T15:52:30.383Z,1.80
2019-02-02T15:54:47.161Z,1.70
2019-02-02T15:57:06.190Z,1.70
2019-02-02T15:59:22.190Z,1.70
2019-02-02T16:01:26.819Z,1.70
2019-02-02T16:03:51.115Z,1.60
2019-02-02T16:06:13.934Z,1.70
2019-02-02T16:08:30.671Z,1.70
2019-02-02T16:10:47.144Z,1.70
2019-02-02T16:13:03.951Z,1.70
2019-02-02T16:15:20.251Z,1.70
2019-02-02T16:17:25.229Z,1.60
2019-02-02T16:19:49.092Z,1.60
2019-02-02T16:22:13.137Z,1.60
2019-02-02T16:27:06.069Z,1.50
2019-02-02T16:29:30.371Z,1.50
2019-02-02T16:31:53.901Z,1.50
2019-02-02T16:34:17.590Z,1.50
2019-02-02T16:36:41.987Z,1.40
2019-02-02T16:38:48.301Z,1.40
2019-02-02T16:41:11.900Z,1.50
2019-02-02T16:43:28.074Z,1.50
2019-02-02T16:45:44.378Z,1.50
2019-02-02T16:48:01.229Z,1.50
2019-02-02T16:50:16.999Z,1.40
2019-02-02T16:52:32.573Z,1.50
2019-02-02T16:54:37.111Z,1.40
2019-02-02T16:57:08.124Z,1.40
2019-02-02T16:59:24.149Z,1.40
2019-02-02T17:01:40.370Z,1.40
2019-02-02T17:03:56.019Z,1.30
2019-02-02T17:06:12.207Z,1.40
2019-02-02T17:08:27.838Z,1.40
2019-02-02T17:10:44.320Z,1.40
2019-02-02T17:13:00.941Z,1.40
2019-02-02T17:15:17.342Z,1.40
2019-02-02T17:17:33.326Z,1.40
2019-02-02T17:19:38.089Z,1.50
2019-02-02T17:24:30.411Z,1.50
2019-02-02T17:26:54.370Z,1.50
2019-02-02T17:29:10.641Z,1.50
2019-02-02T17:31:27.197Z,1.50
2019-02-02T17:33:43.690Z,1.40
2019-02-02T17:35:59.937Z,1.40
2019-02-02T17:38:15.852Z,1.40
2019-02-02T17:40:31.584Z,1.40
2019-02-02T17:42:47.519Z,1.50
2019-02-02T17:44:52.212Z,1.50
2019-02-02T17:47:15.756Z,1.50
2019-02-02T17:49:39.568Z,1.50
2019-02-02T17:51:55.811Z,1.40
2019-02-02T17:54:12.120Z,1.40
2019-02-02T17:56:28.800Z,1.40
2019-02-02T17:58:45.172Z,1.40
2019-02-02T18:01:02.146Z,1.30
2019-02-02T18:03:18.709Z,1.40
2019-02-02T18:05:34.987Z,1.40
2019-02-02T18:07:51.590Z,1.40
2019-02-02T18:10:08.110Z,1.40
2019-02-02T18:12:24.439Z,1.40
2019-02-02T18:14:40.773Z,1.50
2019-02-02T18:16:57.269Z,1.60
2019-02-02T18:19:13.508Z,1.50
2019-02-02T18:21:29.234Z,1.50
2019-02-02T18:23:45.751Z,1.60
2019-02-02T18:26:01.823Z,1.50
2019-02-02T18:28:18.256Z,1.60
2019-02-02T18:30:35.049Z,1.60
2019-02-02T18:32:51.212Z,1.50
2019-02-02T18:35:08.528Z,1.60
2019-02-02T18:37:24.483Z,1.60
2019-02-02T18:39:40.635Z,1.50
2019-02-02T18:41:56.800Z,1.40
2019-02-02T18:44:13.356Z,1.50
2019-02-02T18:46:33.292Z,1.50
2019-02-02T18:48:52.018Z,1.60
2019-02-02T18:51:10.346Z,1.50
2019-02-02T18:53:27.356Z,1.50
2019-02-02T18:55:43.943Z,1.50
2019-02-02T18:58:01.676Z,1.50
2019-02-02T19:00:17.971Z,1.50
2019-02-02T19:02:34.084Z,1.50
2019-02-02T19:04:50.466Z,1.40
2019-02-02T19:07:06.295Z,1.50
2019-02-02T19:09:22.905Z,1.50
2019-02-02T19:11:28.638Z,1.50
2019-02-02T19:13:52.059Z,1.50
2019-02-02T19:16:15.581Z,1.50
2019-02-02T19:18:39.045Z,1.50
2019-02-02T19:21:02.453Z,1.50
2019-02-02T19:26:08.721Z,1.60
2019-02-02T19:28:26.489Z,1.60
2019-02-02T19:30:41.822Z,1.70
2019-02-02T19:32:58.228Z,1.70
2019-02-02T19:35:16.296Z,1.70
2019-02-02T19:37:31.743Z,1.80
2019-02-02T19:39:48.270Z,1.80
2019-02-02T19:42:04.594Z,1.80
2019-02-02T19:44:22.393Z,1.70
2019-02-02T19:46:38.826Z,1.80
2019-02-02T19:48:55.543Z,1.80
2019-02-02T19:51:12.118Z,1.70
2019-02-02T19:53:28.323Z,1.80
2019-02-02T19:55:44.744Z,1.80
2019-02-02T19:58:01.147Z,1.90
2019-02-02T20:00:17.356Z,1.90
2019-02-02T20:02:33.412Z,1.70
2019-02-02T20:04:49.602Z,1.70
2019-02-02T20:07:05.963Z,1.80
2019-02-02T20:09:22.376Z,1.80
2019-02-02T20:11:41.681Z,1.80
2019-02-02T20:13:57.849Z,1.80
2019-02-02T20:16:14.403Z,1.80
2019-02-02T20:18:30.806Z,1.80
2019-02-02T20:20:47.855Z,1.70
2019-02-02T20:23:04.569Z,1.80
2019-02-02T20:25:20.618Z,1.90
2019-02-02T20:27:37.275Z,1.80
2019-02-02T20:29:53.835Z,1.70
2019-02-02T20:32:10.418Z,1.60
2019-02-02T20:34:27.417Z,1.70
2019-02-02T20:36:46.818Z,1.60
2019-02-02T20:39:04.540Z,1.80
2019-02-02T20:41:21.138Z,1.80
2019-02-02T20:43:37.131Z,1.80
2019-02-02T20:45:53.770Z,1.80
2019-02-02T20:48:10.064Z,1.80
2019-02-02T20:50:26.457Z,1.70
2019-02-02T20:52:47.755Z,1.70
2019-02-02T20:55:01.921Z,1.70
2019-02-02T20:57:18.426Z,1.70
2019-02-02T20:59:34.655Z,1.70
2019-02-02T21:01:50.981Z,1.70
2019-02-02T21:04:06.720Z,1.70
2019-02-02T21:06:11.471Z,1.70
2019-02-02T21:08:34.970Z,1.70
2019-02-02T21:10:58.864Z,1.70
2019-02-02T21:13:15.333Z,1.70
2019-02-02T21:15:19.911Z,1.80
2019-02-02T21:17:43.676Z,1.70
2019-02-02T21:19:59.859Z,1.70
2019-02-02T21:22:17.114Z,1.70
2019-02-02T21:24:33.544Z,1.70
2019-02-02T21:27:02.898Z,1.70
2019-02-02T21:29:21.125Z,1.70
2019-02-02T21:31:41.406Z,1.70
2019-02-02T21:33:59.270Z,1.70
2019-02-02T21:36:17.843Z,1.70
2019-02-02T21:38:36.796Z,1.70
2019-02-02T21:40:56.226Z,1.70
2019-02-02T21:43:12.756Z,1.70
2019-02-02T21:45:29.087Z,1.70
2019-02-02T21:47:45.516Z,1.70
2019-02-02T21:50:01.769Z,1.80
2019-02-02T21:52:18.112Z,1.80
2019-02-02T21:54:34.519Z,1.80
2019-02-02T21:56:50.784Z,1.80
2019-02-02T21:59:07.546Z,1.70
2019-02-02T22:01:24.482Z,1.70
2019-02-02T22:03:41.004Z,1.70
2019-02-02T22:05:45.496Z,1.70
2019-02-02T22:08:02.105Z,1.70
2019-02-02T22:10:18.612Z,1.70
2019-02-02T22:12:43.490Z,1.70
2019-02-02T22:17:00.880Z,1.80
2019-02-02T22:19:19.463Z,1.90
2019-02-02T22:21:35.142Z,1.90
2019-02-02T22:23:39.608Z,1.80
2019-02-02T22:26:03.140Z,1.90
2019-02-02T22:28:19.011Z,1.80
2019-02-02T22:30:34.793Z,1.90
2019-02-02T22:32:50.816Z,1.90
2019-02-02T22:35:08.588Z,2.00
2019-02-02T22:37:24.732Z,2.00
2019-02-02T22:39:41.218Z,2.10
2019-02-02T22:41:57.486Z,2.10
2019-02-02T22:44:13.998Z,2.00
2019-02-02T22:46:29.585Z,2.00
2019-02-02T22:48:45.977Z,2.00
2019-02-02T22:51:02.374Z,1.90
2019-02-02T22:53:18.717Z,1.90
2019-02-02T22:55:35.131Z,1.90
2019-02-02T22:57:50.867Z,1.90
2019-02-02T23:00:07.319Z,1.90
2019-02-02T23:02:23.477Z,1.90
2019-02-02T23:04:39.930Z,2.00
2019-02-02T23:06:56.359Z,2.00
2019-02-02T23:09:15.158Z,1.90
2019-02-02T23:11:32.710Z,1.80
2019-02-02T23:14:11.827Z,1.90
2019-02-02T23:16:20.619Z,1.90
2019-02-02T23:18:36.759Z,1.90
2019-02-02T23:20:53.363Z,1.80
2019-02-02T23:23:09.984Z,1.90
2019-02-02T23:25:26.150Z,1.80
2019-02-02T23:27:42.100Z,1.80
2019-02-02T23:29:58.657Z,1.80
2019-02-02T23:32:15.973Z,1.80
2019-02-02T23:34:32.549Z,1.80
2019-02-02T23:36:51.969Z,1.80
2019-02-02T23:39:05.854Z,1.80
2019-02-02T23:41:22.098Z,1.80
2019-02-02T23:43:37.612Z,1.80
2019-02-02T23:45:53.845Z,1.80
2019-02-02T23:48:10.213Z,1.80
2019-02-02T23:50:26.695Z,1.80
2019-02-02T23:52:42.942Z,1.80
2019-02-02T23:54:59.167Z,1.70
2019-02-02T23:57:15.732Z,1.80
2019-02-02T23:59:34.851Z,1.80
